sensor_id;sensor_type;location;lat;lon;timestamp;pressure;altitude;pressure_sealevel;temperature;humidity
66273;BME280;58450;52.150;4.466;2023-03-19T00:00:22;101009.13;;;10.51;100.00
66273;BME280;58450;52.150;4.466;2023-03-19T00:02:50;101019.03;;;10.50;100.00
66273;BME280;58450;52.150;4.466;2023-03-19T00:05:17;101018.56;;;10.46;100.00
66273;BME280;58450;52.150;4.466;2023-03-19T00:07:45;101012.63;;;10.51;100.00
66273;BME280;58450;52.150;4.466;2023-03-19T00:10:13;101020.69;;;10.51;100.00
66273;BME280;58450;52.150;4.466;2023-03-19T00:12:42;101027.47;;;10.47;100.00
66273;BME280;58450;52.150;4.466;2023-03-19T00:15:10;101027.09;;;10.50;100.00
66273;BME280;58450;52.150;4.466;2023-03-19T00:17:39;101033.69;;;10.47;100.00
66273;BME280;58450;52.150;4.466;2023-03-19T00:20:08;101034.72;;;10.46;100.00
66273;BME280;58450;52.150;4.466;2023-03-19T00:22:37;101039.25;;;10.46;100.00
66273;BME280;58450;52.150;4.466;2023-03-19T00:25:06;101040.25;;;10.45;100.00
66273;BME280;58450;52.150;4.466;2023-03-19T00:27:35;101027.38;;;10.40;100.00
66273;BME280;58450;52.150;4.466;2023-03-19T00:30:06;101032.38;;;10.43;100.00
66273;BME280;58450;52.150;4.466;2023-03-19T00:32:34;101034.75;;;10.38;100.00
66273;BME280;58450;52.150;4.466;2023-03-19T00:35:02;101028.19;;;10.41;100.00
66273;BME280;58450;52.150;4.466;2023-03-19T00:37:31;101034.91;;;10.37;100.00
66273;BME280;58450;52.150;4.466;2023-03-19T00:39:59;101063.38;;;10.31;100.00
66273;BME280;58450;52.150;4.466;2023-03-19T00:42:27;101041.03;;;10.30;100.00
66273;BME280;58450;52.150;4.466;2023-03-19T00:44:54;101044.25;;;10.26;100.00
66273;BME280;58450;52.150;4.466;2023-03-19T00:47:23;101047.97;;;10.25;100.00
66273;BME280;58450;52.150;4.466;2023-03-19T00:49:52;101045.34;;;10.16;100.00
66273;BME280;58450;52.150;4.466;2023-03-19T00:52:19;101050.25;;;10.13;100.00
66273;BME280;58450;52.150;4.466;2023-03-19T00:54:47;101049.44;;;10.04;100.00
66273;BME280;58450;52.150;4.466;2023-03-19T00:57:14;101043.31;;;10.18;100.00
66273;BME280;58450;52.150;4.466;2023-03-19T00:59:42;101037.44;;;10.61;100.00
66273;BME280;58450;52.150;4.466;2023-03-19T01:02:10;101044.44;;;11.31;100.00
66273;BME280;58450;52.150;4.466;2023-03-19T01:04:39;101047.72;;;11.63;100.00
66273;BME280;58450;52.150;4.466;2023-03-19T01:07:06;101030.91;;;11.61;100.00
66273;BME280;58450;52.150;4.466;2023-03-19T01:09:34;101040.34;;;11.72;100.00
66273;BME280;58450;52.150;4.466;2023-03-19T01:12:02;101043.69;;;11.89;100.00
66273;BME280;58450;52.150;4.466;2023-03-19T01:14:30;101039.00;;;11.97;100.00
66273;BME280;58450;52.150;4.466;2023-03-19T01:16:58;101048.66;;;11.55;100.00
66273;BME280;58450;52.150;4.466;2023-03-19T01:19:26;101041.22;;;11.72;100.00
66273;BME280;58450;52.150;4.466;2023-03-19T01:21:55;101045.16;;;11.55;100.00
66273;BME280;58450;52.150;4.466;2023-03-19T01:24:22;101049.19;;;11.80;100.00
66273;BME280;58450;52.150;4.466;2023-03-19T01:26:50;101048.94;;;11.60;100.00
66273;BME280;58450;52.150;4.466;2023-03-19T01:29:18;101048.03;;;11.38;100.00
66273;BME280;58450;52.150;4.466;2023-03-19T01:31:45;101044.94;;;11.56;100.00
66273;BME280;58450;52.150;4.466;2023-03-19T01:34:13;101055.06;;;11.54;100.00
66273;BME280;58450;52.150;4.466;2023-03-19T01:36:41;101033.91;;;11.36;100.00
66273;BME280;58450;52.150;4.466;2023-03-19T01:39:10;101037.94;;;11.25;100.00
66273;BME280;58450;52.150;4.466;2023-03-19T01:41:37;101046.13;;;11.17;100.00
66273;BME280;58450;52.150;4.466;2023-03-19T01:44:24;101044.91;;;11.04;100.00
66273;BME280;58450;52.150;4.466;2023-03-19T01:46:53;101041.09;;;11.14;100.00
66273;BME280;58450;52.150;4.466;2023-03-19T01:49:24;101048.34;;;10.98;100.00
66273;BME280;58450;52.150;4.466;2023-03-19T01:51:54;101045.00;;;11.26;100.00
66273;BME280;58450;52.150;4.466;2023-03-19T01:54:26;101043.16;;;10.97;100.00
66273;BME280;58450;52.150;4.466;2023-03-19T01:56:59;101036.53;;;11.29;100.00
66273;BME280;58450;52.150;4.466;2023-03-19T01:59:34;101036.34;;;11.31;100.00
66273;BME280;58450;52.150;4.466;2023-03-19T02:02:08;101036.44;;;11.22;100.00
66273;BME280;58450;52.150;4.466;2023-03-19T02:04:42;101040.34;;;11.05;100.00
66273;BME280;58450;52.150;4.466;2023-03-19T02:07:12;101036.25;;;10.94;100.00
66273;BME280;58450;52.150;4.466;2023-03-19T02:09:43;101046.66;;;10.82;100.00
66273;BME280;58450;52.150;4.466;2023-03-19T02:12:12;101045.78;;;10.67;100.00
66273;BME280;58450;52.150;4.466;2023-03-19T02:14:40;101046.47;;;10.84;100.00
66273;BME280;58450;52.150;4.466;2023-03-19T02:17:08;101039.97;;;10.78;100.00
66273;BME280;58450;52.150;4.466;2023-03-19T02:19:43;101038.59;;;10.82;100.00
66273;BME280;58450;52.150;4.466;2023-03-19T02:22:19;101044.97;;;10.81;100.00
66273;BME280;58450;52.150;4.466;2023-03-19T02:24:52;101043.47;;;10.78;100.00
66273;BME280;58450;52.150;4.466;2023-03-19T02:27:27;101045.06;;;10.73;100.00
66273;BME280;58450;52.150;4.466;2023-03-19T02:29:54;101041.72;;;10.71;100.00
66273;BME280;58450;52.150;4.466;2023-03-19T02:32:22;101045.97;;;10.65;100.00
66273;BME280;58450;52.150;4.466;2023-03-19T02:34:50;101045.53;;;10.76;100.00
66273;BME280;58450;52.150;4.466;2023-03-19T02:37:20;101038.66;;;10.74;100.00
66273;BME280;58450;52.150;4.466;2023-03-19T02:39:54;101049.50;;;10.66;100.00
66273;BME280;58450;52.150;4.466;2023-03-19T02:42:28;101058.03;;;10.69;100.00
66273;BME280;58450;52.150;4.466;2023-03-19T02:44:56;101042.72;;;10.70;100.00
66273;BME280;58450;52.150;4.466;2023-03-19T02:47:25;101060.28;;;10.81;100.00
66273;BME280;58450;52.150;4.466;2023-03-19T02:49:53;101057.13;;;10.77;100.00
66273;BME280;58450;52.150;4.466;2023-03-19T02:52:21;101053.06;;;10.81;100.00
66273;BME280;58450;52.150;4.466;2023-03-19T02:54:49;101063.41;;;10.69;100.00
66273;BME280;58450;52.150;4.466;2023-03-19T02:57:16;101057.44;;;10.82;100.00
66273;BME280;58450;52.150;4.466;2023-03-19T02:59:45;101041.44;;;10.66;100.00
66273;BME280;58450;52.150;4.466;2023-03-19T03:02:13;101051.75;;;10.77;100.00
66273;BME280;58450;52.150;4.466;2023-03-19T03:04:41;101060.44;;;10.64;100.00
66273;BME280;58450;52.150;4.466;2023-03-19T03:07:09;101057.84;;;10.56;100.00
66273;BME280;58450;52.150;4.466;2023-03-19T03:09:37;101047.63;;;10.66;100.00
66273;BME280;58450;52.150;4.466;2023-03-19T03:12:05;101050.22;;;10.59;100.00
66273;BME280;58450;52.150;4.466;2023-03-19T03:14:33;101052.63;;;10.54;100.00
66273;BME280;58450;52.150;4.466;2023-03-19T03:17:02;101059.31;;;10.58;100.00
66273;BME280;58450;52.150;4.466;2023-03-19T03:19:30;101055.31;;;10.54;100.00
66273;BME280;58450;52.150;4.466;2023-03-19T03:21:58;101047.09;;;10.86;100.00
66273;BME280;58450;52.150;4.466;2023-03-19T03:24:26;101046.09;;;10.87;100.00
66273;BME280;58450;52.150;4.466;2023-03-19T03:26:54;101053.22;;;10.79;100.00
66273;BME280;58450;52.150;4.466;2023-03-19T03:29:22;101051.09;;;10.60;100.00
66273;BME280;58450;52.150;4.466;2023-03-19T03:31:49;101060.31;;;10.42;100.00
66273;BME280;58450;52.150;4.466;2023-03-19T03:34:18;101059.94;;;10.45;100.00
66273;BME280;58450;52.150;4.466;2023-03-19T03:36:46;101058.88;;;10.55;100.00
66273;BME280;58450;52.150;4.466;2023-03-19T03:39:14;101045.22;;;10.33;100.00
66273;BME280;58450;52.150;4.466;2023-03-19T03:41:41;101050.59;;;10.56;100.00
66273;BME280;58450;52.150;4.466;2023-03-19T03:44:09;101055.19;;;10.71;100.00
66273;BME280;58450;52.150;4.466;2023-03-19T03:46:36;101057.28;;;10.60;100.00
66273;BME280;58450;52.150;4.466;2023-03-19T03:49:04;101060.25;;;11.04;100.00
66273;BME280;58450;52.150;4.466;2023-03-19T03:51:33;101068.56;;;10.94;100.00
66273;BME280;58450;52.150;4.466;2023-03-19T03:54:01;101064.84;;;10.95;100.00
66273;BME280;58450;52.150;4.466;2023-03-19T03:56:29;101059.97;;;10.99;100.00
66273;BME280;58450;52.150;4.466;2023-03-19T03:58:58;101068.84;;;10.84;100.00
66273;BME280;58450;52.150;4.466;2023-03-19T04:01:26;101065.16;;;10.62;100.00
66273;BME280;58450;52.150;4.466;2023-03-19T04:03:53;101071.63;;;10.29;100.00
66273;BME280;58450;52.150;4.466;2023-03-19T04:06:22;101083.44;;;10.20;100.00
66273;BME280;58450;52.150;4.466;2023-03-19T04:08:52;101081.88;;;10.34;100.00
66273;BME280;58450;52.150;4.466;2023-03-19T04:11:20;101089.94;;;10.11;100.00
66273;BME280;58450;52.150;4.466;2023-03-19T04:13:48;101094.50;;;10.25;100.00
66273;BME280;58450;52.150;4.466;2023-03-19T04:16:16;101093.44;;;10.11;100.00
66273;BME280;58450;52.150;4.466;2023-03-19T04:18:43;101089.44;;;10.30;100.00
66273;BME280;58450;52.150;4.466;2023-03-19T04:21:11;101086.88;;;10.14;100.00
66273;BME280;58450;52.150;4.466;2023-03-19T04:23:38;101078.16;;;10.12;100.00
66273;BME280;58450;52.150;4.466;2023-03-19T04:26:08;101072.34;;;10.23;100.00
66273;BME280;58450;52.150;4.466;2023-03-19T04:28:37;101082.69;;;10.34;100.00
66273;BME280;58450;52.150;4.466;2023-03-19T04:31:06;101084.00;;;10.39;100.00
66273;BME280;58450;52.150;4.466;2023-03-19T04:33:35;101089.63;;;10.05;100.00
66273;BME280;58450;52.150;4.466;2023-03-19T04:36:04;101087.94;;;10.04;100.00
66273;BME280;58450;52.150;4.466;2023-03-19T04:38:32;101092.06;;;10.15;100.00
66273;BME280;58450;52.150;4.466;2023-03-19T04:40:59;101092.31;;;10.29;100.00
66273;BME280;58450;52.150;4.466;2023-03-19T04:43:28;101092.19;;;10.22;100.00
66273;BME280;58450;52.150;4.466;2023-03-19T04:45:56;101092.81;;;10.01;100.00
66273;BME280;58450;52.150;4.466;2023-03-19T04:48:24;101100.69;;;10.11;100.00
66273;BME280;58450;52.150;4.466;2023-03-19T04:50:52;101114.88;;;9.96;100.00
66273;BME280;58450;52.150;4.466;2023-03-19T04:53:22;101112.78;;;9.75;100.00
66273;BME280;58450;52.150;4.466;2023-03-19T04:55:50;101113.63;;;9.75;100.00
66273;BME280;58450;52.150;4.466;2023-03-19T04:58:18;101109.66;;;9.63;100.00
66273;BME280;58450;52.150;4.466;2023-03-19T05:00:47;101119.63;;;9.86;100.00
66273;BME280;58450;52.150;4.466;2023-03-19T05:03:15;101118.63;;;9.87;100.00
66273;BME280;58450;52.150;4.466;2023-03-19T05:05:43;101120.28;;;9.88;100.00
66273;BME280;58450;52.150;4.466;2023-03-19T05:08:11;101113.47;;;10.09;100.00
66273;BME280;58450;52.150;4.466;2023-03-19T05:10:39;101118.94;;;9.92;100.00
66273;BME280;58450;52.150;4.466;2023-03-19T05:13:07;101121.59;;;10.00;100.00
66273;BME280;58450;52.150;4.466;2023-03-19T05:15:35;101129.19;;;9.88;100.00
66273;BME280;58450;52.150;4.466;2023-03-19T05:18:04;101134.44;;;9.82;100.00
66273;BME280;58450;52.150;4.466;2023-03-19T05:20:31;101141.06;;;9.63;100.00
66273;BME280;58450;52.150;4.466;2023-03-19T05:22:59;101142.63;;;9.49;100.00
66273;BME280;58450;52.150;4.466;2023-03-19T05:25:27;101143.78;;;9.94;100.00
66273;BME280;58450;52.150;4.466;2023-03-19T05:27:55;101140.22;;;9.62;100.00
66273;BME280;58450;52.150;4.466;2023-03-19T05:30:23;101146.13;;;9.57;100.00
66273;BME280;58450;52.150;4.466;2023-03-19T05:32:52;101146.25;;;9.64;100.00
66273;BME280;58450;52.150;4.466;2023-03-19T05:35:21;101149.97;;;9.55;100.00
66273;BME280;58450;52.150;4.466;2023-03-19T05:37:49;101148.94;;;9.64;100.00
66273;BME280;58450;52.150;4.466;2023-03-19T05:40:17;101153.38;;;9.40;100.00
66273;BME280;58450;52.150;4.466;2023-03-19T05:42:44;101158.13;;;9.22;100.00
66273;BME280;58450;52.150;4.466;2023-03-19T05:45:12;101159.56;;;9.57;100.00
66273;BME280;58450;52.150;4.466;2023-03-19T05:47:40;101156.97;;;9.72;100.00
66273;BME280;58450;52.150;4.466;2023-03-19T05:50:09;101155.44;;;9.78;100.00
66273;BME280;58450;52.150;4.466;2023-03-19T05:52:39;101156.56;;;9.44;100.00
66273;BME280;58450;52.150;4.466;2023-03-19T05:55:07;101161.97;;;9.27;100.00
66273;BME280;58450;52.150;4.466;2023-03-19T05:57:35;101167.31;;;9.44;100.00
66273;BME280;58450;52.150;4.466;2023-03-19T06:00:04;101157.88;;;9.56;100.00
66273;BME280;58450;52.150;4.466;2023-03-19T06:02:33;101157.47;;;9.76;100.00
66273;BME280;58450;52.150;4.466;2023-03-19T06:05:02;101155.06;;;9.89;100.00
66273;BME280;58450;52.150;4.466;2023-03-19T06:07:32;101156.28;;;9.79;100.00
66273;BME280;58450;52.150;4.466;2023-03-19T06:10:01;101157.31;;;10.09;100.00
66273;BME280;58450;52.150;4.466;2023-03-19T06:12:30;101164.69;;;10.15;100.00
66273;BME280;58450;52.150;4.466;2023-03-19T06:14:57;101164.34;;;10.18;100.00
66273;BME280;58450;52.150;4.466;2023-03-19T06:17:25;101171.03;;;10.23;100.00
66273;BME280;58450;52.150;4.466;2023-03-19T06:19:52;101169.03;;;9.85;100.00
66273;BME280;58450;52.150;4.466;2023-03-19T06:22:20;101173.03;;;9.97;100.00
66273;BME280;58450;52.150;4.466;2023-03-19T06:24:47;101177.00;;;10.10;100.00
66273;BME280;58450;52.150;4.466;2023-03-19T06:27:16;101182.03;;;10.13;100.00
66273;BME280;58450;52.150;4.466;2023-03-19T06:29:44;101179.69;;;10.10;100.00
66273;BME280;58450;52.150;4.466;2023-03-19T06:32:12;101184.44;;;10.31;100.00
66273;BME280;58450;52.150;4.466;2023-03-19T06:34:39;101195.50;;;10.36;100.00
66273;BME280;58450;52.150;4.466;2023-03-19T06:37:07;101199.38;;;10.42;100.00
66273;BME280;58450;52.150;4.466;2023-03-19T06:39:35;101206.09;;;10.38;100.00
66273;BME280;58450;52.150;4.466;2023-03-19T06:42:03;101202.41;;;10.30;100.00
66273;BME280;58450;52.150;4.466;2023-03-19T06:44:32;101213.69;;;10.34;100.00
66273;BME280;58450;52.150;4.466;2023-03-19T06:47:00;101211.88;;;10.18;100.00
66273;BME280;58450;52.150;4.466;2023-03-19T06:49:27;101215.09;;;10.22;100.00
66273;BME280;58450;52.150;4.466;2023-03-19T06:51:55;101218.66;;;10.14;100.00
66273;BME280;58450;52.150;4.466;2023-03-19T06:54:23;101216.13;;;10.12;100.00
66273;BME280;58450;52.150;4.466;2023-03-19T06:56:50;101222.72;;;10.10;100.00
66273;BME280;58450;52.150;4.466;2023-03-19T06:59:18;101220.50;;;10.13;100.00
66273;BME280;58450;52.150;4.466;2023-03-19T07:01:47;101226.59;;;9.99;100.00
66273;BME280;58450;52.150;4.466;2023-03-19T07:04:15;101223.63;;;9.85;100.00
66273;BME280;58450;52.150;4.466;2023-03-19T07:06:43;101222.66;;;10.18;100.00
66273;BME280;58450;52.150;4.466;2023-03-19T07:09:10;101230.66;;;10.34;100.00
66273;BME280;58450;52.150;4.466;2023-03-19T07:11:38;101225.97;;;10.28;100.00
66273;BME280;58450;52.150;4.466;2023-03-19T07:14:06;101221.88;;;10.01;100.00
66273;BME280;58450;52.150;4.466;2023-03-19T07:16:34;101230.88;;;9.76;100.00
66273;BME280;58450;52.150;4.466;2023-03-19T07:19:03;101240.38;;;9.96;100.00
66273;BME280;58450;52.150;4.466;2023-03-19T07:21:30;101249.72;;;9.60;100.00
66273;BME280;58450;52.150;4.466;2023-03-19T07:23:58;101244.63;;;9.90;100.00
66273;BME280;58450;52.150;4.466;2023-03-19T07:26:25;101242.72;;;10.07;100.00
66273;BME280;58450;52.150;4.466;2023-03-19T07:28:54;101246.31;;;10.31;100.00
66273;BME280;58450;52.150;4.466;2023-03-19T07:31:22;101252.78;;;10.05;100.00
66273;BME280;58450;52.150;4.466;2023-03-19T07:33:49;101268.09;;;10.04;100.00
66273;BME280;58450;52.150;4.466;2023-03-19T07:36:18;101262.03;;;10.11;100.00
66273;BME280;58450;52.150;4.466;2023-03-19T07:38:46;101256.88;;;9.93;100.00
66273;BME280;58450;52.150;4.466;2023-03-19T07:41:14;101258.03;;;10.07;100.00
66273;BME280;58450;52.150;4.466;2023-03-19T07:43:42;101262.31;;;10.16;100.00
66273;BME280;58450;52.150;4.466;2023-03-19T07:46:09;101268.44;;;10.10;100.00
66273;BME280;58450;52.150;4.466;2023-03-19T07:48:37;101265.69;;;10.18;100.00
66273;BME280;58450;52.150;4.466;2023-03-19T07:51:05;101271.28;;;10.08;100.00
66273;BME280;58450;52.150;4.466;2023-03-19T07:53:34;101278.97;;;10.19;100.00
66273;BME280;58450;52.150;4.466;2023-03-19T07:56:01;101273.56;;;10.28;100.00
66273;BME280;58450;52.150;4.466;2023-03-19T07:58:29;101274.59;;;10.18;100.00
66273;BME280;58450;52.150;4.466;2023-03-19T08:00:57;101276.59;;;10.25;100.00
66273;BME280;58450;52.150;4.466;2023-03-19T08:03:24;101281.31;;;10.62;100.00
66273;BME280;58450;52.150;4.466;2023-03-19T08:05:52;101280.13;;;10.65;100.00
66273;BME280;58450;52.150;4.466;2023-03-19T08:08:19;101285.66;;;10.32;100.00
66273;BME280;58450;52.150;4.466;2023-03-19T08:10:48;101289.94;;;10.58;100.00
66273;BME280;58450;52.150;4.466;2023-03-19T08:13:16;101289.16;;;10.32;100.00
66273;BME280;58450;52.150;4.466;2023-03-19T08:15:44;101293.19;;;10.37;100.00
66273;BME280;58450;52.150;4.466;2023-03-19T08:18:11;101295.88;;;10.37;100.00
66273;BME280;58450;52.150;4.466;2023-03-19T08:20:39;101302.50;;;10.26;100.00
66273;BME280;58450;52.150;4.466;2023-03-19T08:23:06;101301.78;;;10.32;100.00
66273;BME280;58450;52.150;4.466;2023-03-19T08:25:34;101300.22;;;10.54;100.00
66273;BME280;58450;52.150;4.466;2023-03-19T08:28:03;101315.69;;;10.52;100.00
66273;BME280;58450;52.150;4.466;2023-03-19T08:30:32;101319.63;;;10.41;100.00
66273;BME280;58450;52.150;4.466;2023-03-19T08:32:59;101312.66;;;10.55;100.00
66273;BME280;58450;52.150;4.466;2023-03-19T08:35:27;101314.28;;;10.16;100.00
66273;BME280;58450;52.150;4.466;2023-03-19T08:37:55;101317.94;;;10.32;100.00
66273;BME280;58450;52.150;4.466;2023-03-19T08:40:23;101327.81;;;10.48;100.00
66273;BME280;58450;52.150;4.466;2023-03-19T08:42:51;101334.22;;;10.30;100.00
66273;BME280;58450;52.150;4.466;2023-03-19T08:45:22;101338.09;;;10.44;100.00
66273;BME280;58450;52.150;4.466;2023-03-19T08:47:49;101340.50;;;10.14;100.00
66273;BME280;58450;52.150;4.466;2023-03-19T08:50:17;101335.59;;;10.26;100.00
66273;BME280;58450;52.150;4.466;2023-03-19T08:52:45;101334.06;;;10.32;100.00
66273;BME280;58450;52.150;4.466;2023-03-19T08:55:13;101338.75;;;10.55;100.00
66273;BME280;58450;52.150;4.466;2023-03-19T08:57:41;101332.28;;;10.64;100.00
66273;BME280;58450;52.150;4.466;2023-03-19T09:00:09;101338.91;;;10.53;100.00
66273;BME280;58450;52.150;4.466;2023-03-19T09:02:39;101347.22;;;10.75;100.00
66273;BME280;58450;52.150;4.466;2023-03-19T09:05:07;101344.88;;;10.72;100.00
66273;BME280;58450;52.150;4.466;2023-03-19T09:07:35;101343.06;;;10.96;100.00
66273;BME280;58450;52.150;4.466;2023-03-19T09:10:03;101346.56;;;10.73;100.00
66273;BME280;58450;52.150;4.466;2023-03-19T09:12:31;101345.53;;;11.05;100.00
66273;BME280;58450;52.150;4.466;2023-03-19T09:14:59;101354.00;;;10.94;100.00
66273;BME280;58450;52.150;4.466;2023-03-19T09:17:26;101353.56;;;11.14;100.00
66273;BME280;58450;52.150;4.466;2023-03-19T09:19:55;101360.41;;;10.93;100.00
66273;BME280;58450;52.150;4.466;2023-03-19T09:22:23;101353.03;;;10.87;100.00
66273;BME280;58450;52.150;4.466;2023-03-19T09:24:51;101356.88;;;10.92;100.00
66273;BME280;58450;52.150;4.466;2023-03-19T09:27:18;101360.84;;;11.05;100.00
66273;BME280;58450;52.150;4.466;2023-03-19T09:29:46;101363.41;;;10.98;100.00
66273;BME280;58450;52.150;4.466;2023-03-19T09:32:13;101373.66;;;11.03;100.00
66273;BME280;58450;52.150;4.466;2023-03-19T09:34:41;101375.84;;;11.31;100.00
66273;BME280;58450;52.150;4.466;2023-03-19T09:37:10;101374.09;;;11.38;100.00
66273;BME280;58450;52.150;4.466;2023-03-19T09:39:38;101379.28;;;11.86;100.00
66273;BME280;58450;52.150;4.466;2023-03-19T09:42:14;101377.50;;;11.78;100.00
66273;BME280;58450;52.150;4.466;2023-03-19T09:44:54;101384.81;;;11.70;100.00
66273;BME280;58450;52.150;4.466;2023-03-19T09:47:25;101391.88;;;11.71;100.00
66273;BME280;58450;52.150;4.466;2023-03-19T09:49:58;101393.22;;;11.51;100.00
66273;BME280;58450;52.150;4.466;2023-03-19T09:52:41;101391.06;;;11.70;100.00
66273;BME280;58450;52.150;4.466;2023-03-19T09:55:29;101397.94;;;11.49;100.00
66273;BME280;58450;52.150;4.466;2023-03-19T09:58:11;101398.00;;;11.64;100.00
66273;BME280;58450;52.150;4.466;2023-03-19T10:00:42;101402.63;;;11.56;100.00
66273;BME280;58450;52.150;4.466;2023-03-19T10:06:20;101404.97;;;11.04;100.00
66273;BME280;58450;52.150;4.466;2023-03-19T10:09:09;101404.50;;;11.23;100.00
66273;BME280;58450;52.150;4.466;2023-03-19T10:12:00;101407.41;;;11.45;100.00
66273;BME280;58450;52.150;4.466;2023-03-19T10:14:49;101411.66;;;11.63;100.00
66273;BME280;58450;52.150;4.466;2023-03-19T10:17:30;101419.56;;;11.64;100.00
66273;BME280;58450;52.150;4.466;2023-03-19T10:20:04;101413.16;;;11.42;100.00
66273;BME280;58450;52.150;4.466;2023-03-19T10:22:39;101423.25;;;11.17;100.00
66273;BME280;58450;52.150;4.466;2023-03-19T10:25:17;101418.38;;;11.12;100.00
66273;BME280;58450;52.150;4.466;2023-03-19T10:27:52;101421.88;;;11.21;100.00
66273;BME280;58450;52.150;4.466;2023-03-19T10:30:25;101425.88;;;10.93;100.00
66273;BME280;58450;52.150;4.466;2023-03-19T10:33:02;101430.66;;;10.75;100.00
66273;BME280;58450;52.150;4.466;2023-03-19T10:35:43;101425.72;;;10.87;100.00
66273;BME280;58450;52.150;4.466;2023-03-19T10:38:19;101427.59;;;10.86;100.00
66273;BME280;58450;52.150;4.466;2023-03-19T10:41:02;101430.81;;;11.13;100.00
66273;BME280;58450;52.150;4.466;2023-03-19T10:43:42;101419.84;;;10.91;100.00
66273;BME280;58450;52.150;4.466;2023-03-19T10:46:17;101426.88;;;11.32;100.00
66273;BME280;58450;52.150;4.466;2023-03-19T10:48:47;101429.72;;;11.54;100.00
66273;BME280;58450;52.150;4.466;2023-03-19T10:51:17;101431.28;;;11.25;100.00
66273;BME280;58450;52.150;4.466;2023-03-19T10:53:51;101425.75;;;11.18;100.00
66273;BME280;58450;52.150;4.466;2023-03-19T10:56:23;101434.81;;;11.49;100.00
66273;BME280;58450;52.150;4.466;2023-03-19T10:58:57;101434.56;;;11.67;100.00
66273;BME280;58450;52.150;4.466;2023-03-19T11:01:30;101439.31;;;11.80;100.00
66273;BME280;58450;52.150;4.466;2023-03-19T11:04:00;101435.97;;;11.78;100.00
66273;BME280;58450;52.150;4.466;2023-03-19T11:06:37;101438.97;;;11.60;100.00
66273;BME280;58450;52.150;4.466;2023-03-19T11:09:13;101441.25;;;11.71;100.00
66273;BME280;58450;52.150;4.466;2023-03-19T11:11:47;101436.09;;;11.61;100.00
66273;BME280;58450;52.150;4.466;2023-03-19T11:14:20;101447.41;;;11.80;100.00
66273;BME280;58450;52.150;4.466;2023-03-19T11:16:56;101445.41;;;11.97;100.00
66273;BME280;58450;52.150;4.466;2023-03-19T11:19:30;101444.59;;;11.96;100.00
66273;BME280;58450;52.150;4.466;2023-03-19T11:22:03;101444.34;;;12.06;100.00
66273;BME280;58450;52.150;4.466;2023-03-19T11:24:37;101454.63;;;12.11;100.00
66273;BME280;58450;52.150;4.466;2023-03-19T11:27:08;101446.19;;;12.29;100.00
66273;BME280;58450;52.150;4.466;2023-03-19T11:29:39;101450.78;;;11.82;100.00
66273;BME280;58450;52.150;4.466;2023-03-19T11:32:17;101461.88;;;12.10;100.00
66273;BME280;58450;52.150;4.466;2023-03-19T11:35:09;101461.63;;;12.20;100.00
66273;BME280;58450;52.150;4.466;2023-03-19T11:37:49;101454.34;;;12.21;100.00
66273;BME280;58450;52.150;4.466;2023-03-19T11:40:30;101457.84;;;12.45;100.00
66273;BME280;58450;52.150;4.466;2023-03-19T11:43:24;101460.38;;;12.08;100.00
66273;BME280;58450;52.150;4.466;2023-03-19T11:46:14;101460.84;;;11.88;100.00
66273;BME280;58450;52.150;4.466;2023-03-19T11:49:07;101470.25;;;12.16;100.00
66273;BME280;58450;52.150;4.466;2023-03-19T11:51:49;101464.25;;;12.44;100.00
66273;BME280;58450;52.150;4.466;2023-03-19T11:54:29;101472.66;;;12.10;100.00
66273;BME280;58450;52.150;4.466;2023-03-19T11:57:11;101482.72;;;11.93;100.00
66273;BME280;58450;52.150;4.466;2023-03-19T12:00:06;101469.28;;;11.62;100.00
66273;BME280;58450;52.150;4.466;2023-03-19T12:02:54;101472.28;;;11.67;100.00
66273;BME280;58450;52.150;4.466;2023-03-19T12:05:50;101473.31;;;11.66;100.00
66273;BME280;58450;52.150;4.466;2023-03-19T12:08:29;101479.69;;;11.42;100.00
66273;BME280;58450;52.150;4.466;2023-03-19T12:11:16;101480.06;;;11.62;100.00
66273;BME280;58450;52.150;4.466;2023-03-19T12:13:58;101475.50;;;11.62;100.00
66273;BME280;58450;52.150;4.466;2023-03-19T12:16:49;101480.44;;;11.82;100.00
66273;BME280;58450;52.150;4.466;2023-03-19T12:19:49;101481.97;;;12.08;100.00
66273;BME280;58450;52.150;4.466;2023-03-19T12:22:35;101473.38;;;12.27;100.00
66273;BME280;58450;52.150;4.466;2023-03-19T12:25:27;101479.94;;;12.63;100.00
66273;BME280;58450;52.150;4.466;2023-03-19T12:28:08;101480.28;;;13.05;100.00
66273;BME280;58450;52.150;4.466;2023-03-19T12:30:41;101481.50;;;13.18;100.00
66273;BME280;58450;52.150;4.466;2023-03-19T12:33:27;101483.88;;;13.42;100.00
66273;BME280;58450;52.150;4.466;2023-03-19T12:36:07;101486.59;;;13.27;100.00
66273;BME280;58450;52.150;4.466;2023-03-19T12:38:42;101487.94;;;13.17;100.00
66273;BME280;58450;52.150;4.466;2023-03-19T12:41:17;101488.25;;;13.28;100.00
66273;BME280;58450;52.150;4.466;2023-03-19T12:43:53;101489.09;;;13.29;100.00
66273;BME280;58450;52.150;4.466;2023-03-19T12:46:28;101487.88;;;13.32;100.00
66273;BME280;58450;52.150;4.466;2023-03-19T12:49:05;101498.25;;;13.43;100.00
66273;BME280;58450;52.150;4.466;2023-03-19T12:51:39;101506.88;;;13.38;100.00
66273;BME280;58450;52.150;4.466;2023-03-19T12:54:13;101511.28;;;13.24;100.00
66273;BME280;58450;52.150;4.466;2023-03-19T12:56:48;101507.97;;;12.77;100.00
66273;BME280;58450;52.150;4.466;2023-03-19T12:59:28;101513.06;;;12.19;100.00
66273;BME280;58450;52.150;4.466;2023-03-19T13:02:10;101514.00;;;12.26;100.00